<?xml version="1.0" encoding="UTF-8" standalone="no" ?>
<gpx xmlns="http://www.topografix.com/GPX/1/1" xmlns:xsi="http://www.w3.org/2001/XMLSchema-instance" xsi:schemaLocation="http://www.topografix.com/GPX/1/1 http://www.topografix.com/GPX/1/1/gpx.xsd" version="1.1" creator="VisuGPX - https://www.visugpx.com">
  <metadata>
    <name>Buoux-Les crêtes-Sivergues</name>
    <desc><![CDATA[Certainement la plus belle montée sur les crêtes du Luberon]]></desc>
  </metadata>
  <trk>
    <name><![CDATA[bijoux les creres]]></name>
    <trkseg>
      <trkpt lat="43.8207" lon="5.38244">
        <ele>412.359161</ele>
        <time>2018-10-25T09:47:16Z</time>
      </trkpt>
      <trkpt lat="43.8208" lon="5.38259">
        <ele>413.162659</ele>
        <time>2018-10-25T09:47:31Z</time>
      </trkpt>
      <trkpt lat="43.82093" lon="5.38267">
        <ele>413.819702</ele>
        <time>2018-10-25T09:47:46Z</time>
      </trkpt>
      <trkpt lat="43.82111" lon="5.38273">
        <ele>413.739441</ele>
        <time>2018-10-25T09:48:01Z</time>
      </trkpt>
      <trkpt lat="43.82129" lon="5.38284">
        <ele>413.970581</ele>
        <time>2018-10-25T09:48:17Z</time>
      </trkpt>
      <trkpt lat="43.82141" lon="5.38301">
        <ele>415.007294</ele>
        <time>2018-10-25T09:48:32Z</time>
      </trkpt>
      <trkpt lat="43.82162" lon="5.38312">
        <ele>413.091736</ele>
        <time>2018-10-25T09:48:48Z</time>
      </trkpt>
      <trkpt lat="43.82179" lon="5.38323">
        <ele>415.762421</ele>
        <time>2018-10-25T09:49:04Z</time>
      </trkpt>
      <trkpt lat="43.82194" lon="5.38337">
        <ele>418.686768</ele>
        <time>2018-10-25T09:49:20Z</time>
      </trkpt>
      <trkpt lat="43.82196" lon="5.38362">
        <ele>419.591278</ele>
        <time>2018-10-25T09:49:36Z</time>
      </trkpt>
      <trkpt lat="43.82197" lon="5.38384">
        <ele>420.086243</ele>
        <time>2018-10-25T09:49:51Z</time>
      </trkpt>
      <trkpt lat="43.82192" lon="5.38411">
        <ele>421.054291</ele>
        <time>2018-10-25T09:50:07Z</time>
      </trkpt>
      <trkpt lat="43.82193" lon="5.38441">
        <ele>419.478058</ele>
        <time>2018-10-25T09:50:22Z</time>
      </trkpt>
      <trkpt lat="43.82194" lon="5.38472">
        <ele>417.275146</ele>
        <time>2018-10-25T09:50:38Z</time>
      </trkpt>
      <trkpt lat="43.82199" lon="5.38498">
        <ele>415.251892</ele>
        <time>2018-10-25T09:50:53Z</time>
      </trkpt>
      <trkpt lat="43.82189" lon="5.38511">
        <ele>415.862732</ele>
        <time>2018-10-25T09:51:09Z</time>
      </trkpt>
      <trkpt lat="43.8218" lon="5.38526">
        <ele>416.752502</ele>
        <time>2018-10-25T09:51:26Z</time>
      </trkpt>
      <trkpt lat="43.82179" lon="5.3855">
        <ele>417.315796</ele>
        <time>2018-10-25T09:51:41Z</time>
      </trkpt>
      <trkpt lat="43.82176" lon="5.38574">
        <ele>418.009216</ele>
        <time>2018-10-25T09:51:57Z</time>
      </trkpt>
      <trkpt lat="43.82173" lon="5.38593">
        <ele>420.390076</ele>
        <time>2018-10-25T09:52:12Z</time>
      </trkpt>
      <trkpt lat="43.82176" lon="5.38613">
        <ele>424.08728</ele>
        <time>2018-10-25T09:52:28Z</time>
      </trkpt>
      <trkpt lat="43.82184" lon="5.3863">
        <ele>426.209839</ele>
        <time>2018-10-25T09:52:45Z</time>
      </trkpt>
      <trkpt lat="43.82189" lon="5.38647">
        <ele>428.305725</ele>
        <time>2018-10-25T09:53:00Z</time>
      </trkpt>
      <trkpt lat="43.82198" lon="5.38664">
        <ele>429.091003</ele>
        <time>2018-10-25T09:53:16Z</time>
      </trkpt>
      <trkpt lat="43.82204" lon="5.38683">
        <ele>430.823975</ele>
        <time>2018-10-25T09:53:31Z</time>
      </trkpt>
      <trkpt lat="43.82211" lon="5.387">
        <ele>431.210846</ele>
        <time>2018-10-25T09:53:46Z</time>
      </trkpt>
      <trkpt lat="43.82212" lon="5.38723">
        <ele>434.243103</ele>
        <time>2018-10-25T09:54:02Z</time>
      </trkpt>
      <trkpt lat="43.82213" lon="5.38743">
        <ele>436.962952</ele>
        <time>2018-10-25T09:54:18Z</time>
      </trkpt>
      <trkpt lat="43.82214" lon="5.38764">
        <ele>439.858398</ele>
        <time>2018-10-25T09:54:33Z</time>
      </trkpt>
      <trkpt lat="43.82216" lon="5.38786">
        <ele>442.662781</ele>
        <time>2018-10-25T09:54:49Z</time>
      </trkpt>
      <trkpt lat="43.82217" lon="5.38806">
        <ele>445.477356</ele>
        <time>2018-10-25T09:55:04Z</time>
      </trkpt>
      <trkpt lat="43.82219" lon="5.38827">
        <ele>448.121429</ele>
        <time>2018-10-25T09:55:20Z</time>
      </trkpt>
      <trkpt lat="43.8222" lon="5.38847">
        <ele>450.428009</ele>
        <time>2018-10-25T09:55:37Z</time>
      </trkpt>
      <trkpt lat="43.82224" lon="5.38868">
        <ele>451.185333</ele>
        <time>2018-10-25T09:55:53Z</time>
      </trkpt>
      <trkpt lat="43.82226" lon="5.38889">
        <ele>452.517792</ele>
        <time>2018-10-25T09:56:09Z</time>
      </trkpt>
      <trkpt lat="43.82229" lon="5.38909">
        <ele>453.802734</ele>
        <time>2018-10-25T09:56:25Z</time>
      </trkpt>
      <trkpt lat="43.8223" lon="5.38928">
        <ele>457.01178</ele>
        <time>2018-10-25T09:56:40Z</time>
      </trkpt>
      <trkpt lat="43.82229" lon="5.38948">
        <ele>462.918121</ele>
        <time>2018-10-25T09:56:55Z</time>
      </trkpt>
      <trkpt lat="43.82241" lon="5.38956">
        <ele>460.125885</ele>
        <time>2018-10-25T09:57:13Z</time>
      </trkpt>
      <trkpt lat="43.82255" lon="5.38958">
        <ele>457.18692</ele>
        <time>2018-10-25T09:57:29Z</time>
      </trkpt>
      <trkpt lat="43.8227" lon="5.38958">
        <ele>456.297302</ele>
        <time>2018-10-25T09:57:45Z</time>
      </trkpt>
      <trkpt lat="43.82283" lon="5.38963">
        <ele>457.077759</ele>
        <time>2018-10-25T09:58:00Z</time>
      </trkpt>
      <trkpt lat="43.82297" lon="5.3896">
        <ele>455.386261</ele>
        <time>2018-10-25T09:58:17Z</time>
      </trkpt>
      <trkpt lat="43.82299" lon="5.3898">
        <ele>461.701691</ele>
        <time>2018-10-25T09:58:37Z</time>
      </trkpt>
      <trkpt lat="43.82286" lon="5.38988">
        <ele>465.435181</ele>
        <time>2018-10-25T09:58:53Z</time>
      </trkpt>
      <trkpt lat="43.82271" lon="5.38998">
        <ele>469.361816</ele>
        <time>2018-10-25T09:59:09Z</time>
      </trkpt>
      <trkpt lat="43.82255" lon="5.39001">
        <ele>471.025726</ele>
        <time>2018-10-25T09:59:25Z</time>
      </trkpt>
      <trkpt lat="43.82244" lon="5.39012">
        <ele>476.749603</ele>
        <time>2018-10-25T09:59:45Z</time>
      </trkpt>
      <trkpt lat="43.8223" lon="5.39012">
        <ele>480.121216</ele>
        <time>2018-10-25T10:00:05Z</time>
      </trkpt>
      <trkpt lat="43.82216" lon="5.39008">
        <ele>482.090637</ele>
        <time>2018-10-25T10:00:20Z</time>
      </trkpt>
      <trkpt lat="43.82209" lon="5.39025">
        <ele>488.356934</ele>
        <time>2018-10-25T10:00:46Z</time>
      </trkpt>
      <trkpt lat="43.82216" lon="5.39041">
        <ele>491.733185</ele>
        <time>2018-10-25T10:01:11Z</time>
      </trkpt>
      <trkpt lat="43.82224" lon="5.39057">
        <ele>495.84613</ele>
        <time>2018-10-25T10:01:37Z</time>
      </trkpt>
      <trkpt lat="43.82228" lon="5.39076">
        <ele>501.660461</ele>
        <time>2018-10-25T10:01:56Z</time>
      </trkpt>
      <trkpt lat="43.82215" lon="5.39086">
        <ele>505.586945</ele>
        <time>2018-10-25T10:02:24Z</time>
      </trkpt>
      <trkpt lat="43.82202" lon="5.39088">
        <ele>507.016998</ele>
        <time>2018-10-25T10:02:41Z</time>
      </trkpt>
      <trkpt lat="43.82191" lon="5.39075">
        <ele>503.876862</ele>
        <time>2018-10-25T10:03:00Z</time>
      </trkpt>
      <trkpt lat="43.82181" lon="5.39089">
        <ele>508.401764</ele>
        <time>2018-10-25T10:03:43Z</time>
      </trkpt>
      <trkpt lat="43.82181" lon="5.39108">
        <ele>515.946045</ele>
        <time>2018-10-25T10:04:04Z</time>
      </trkpt>
      <trkpt lat="43.82189" lon="5.39125">
        <ele>522.271667</ele>
        <time>2018-10-25T10:04:25Z</time>
      </trkpt>
      <trkpt lat="43.82198" lon="5.39139">
        <ele>527.607056</ele>
        <time>2018-10-25T10:04:47Z</time>
      </trkpt>
      <trkpt lat="43.822" lon="5.39158">
        <ele>534.862793</ele>
        <time>2018-10-25T10:05:12Z</time>
      </trkpt>
      <trkpt lat="43.82185" lon="5.39159">
        <ele>535.9729</ele>
        <time>2018-10-25T10:05:33Z</time>
      </trkpt>
      <trkpt lat="43.82173" lon="5.39167">
        <ele>539.922852</ele>
        <time>2018-10-25T10:05:52Z</time>
      </trkpt>
      <trkpt lat="43.82161" lon="5.39159">
        <ele>537.070374</ele>
        <time>2018-10-25T10:06:09Z</time>
      </trkpt>
      <trkpt lat="43.82147" lon="5.39155">
        <ele>536.234009</ele>
        <time>2018-10-25T10:06:29Z</time>
      </trkpt>
      <trkpt lat="43.82134" lon="5.39162">
        <ele>539.222595</ele>
        <time>2018-10-25T10:06:45Z</time>
      </trkpt>
      <trkpt lat="43.82123" lon="5.39173">
        <ele>543.237061</ele>
        <time>2018-10-25T10:07:04Z</time>
      </trkpt>
      <trkpt lat="43.82112" lon="5.39184">
        <ele>547.346252</ele>
        <time>2018-10-25T10:07:30Z</time>
      </trkpt>
      <trkpt lat="43.821" lon="5.39194">
        <ele>550.607544</ele>
        <time>2018-10-25T10:07:49Z</time>
      </trkpt>
      <trkpt lat="43.82112" lon="5.39202">
        <ele>553.349609</ele>
        <time>2018-10-25T10:08:21Z</time>
      </trkpt>
      <trkpt lat="43.82126" lon="5.39199">
        <ele>552.402039</ele>
        <time>2018-10-25T10:08:39Z</time>
      </trkpt>
      <trkpt lat="43.82136" lon="5.39212">
        <ele>557.001648</ele>
        <time>2018-10-25T10:08:57Z</time>
      </trkpt>
      <trkpt lat="43.82141" lon="5.39229">
        <ele>563.47998</ele>
        <time>2018-10-25T10:09:12Z</time>
      </trkpt>
      <trkpt lat="43.82152" lon="5.39241">
        <ele>568.091309</ele>
        <time>2018-10-25T10:09:31Z</time>
      </trkpt>
      <trkpt lat="43.82148" lon="5.3926">
        <ele>574.26709</ele>
        <time>2018-10-25T10:09:53Z</time>
      </trkpt>
      <trkpt lat="43.82145" lon="5.39287">
        <ele>582.112488</ele>
        <time>2018-10-25T10:10:09Z</time>
      </trkpt>
      <trkpt lat="43.82134" lon="5.39275">
        <ele>578.388</ele>
        <time>2018-10-25T10:10:24Z</time>
      </trkpt>
      <trkpt lat="43.8212" lon="5.39269">
        <ele>576.191284</ele>
        <time>2018-10-25T10:10:45Z</time>
      </trkpt>
      <trkpt lat="43.82108" lon="5.39277">
        <ele>578.840149</ele>
        <time>2018-10-25T10:11:03Z</time>
      </trkpt>
      <trkpt lat="43.8211" lon="5.39297">
        <ele>585.088501</ele>
        <time>2018-10-25T10:11:26Z</time>
      </trkpt>
      <trkpt lat="43.82097" lon="5.39304">
        <ele>587.649353</ele>
        <time>2018-10-25T10:11:50Z</time>
      </trkpt>
      <trkpt lat="43.82083" lon="5.3931">
        <ele>589.894531</ele>
        <time>2018-10-25T10:12:06Z</time>
      </trkpt>
      <trkpt lat="43.82069" lon="5.3931">
        <ele>591.870789</ele>
        <time>2018-10-25T10:12:27Z</time>
      </trkpt>
      <trkpt lat="43.82055" lon="5.39316">
        <ele>595.543762</ele>
        <time>2018-10-25T10:12:43Z</time>
      </trkpt>
      <trkpt lat="43.82038" lon="5.39314">
        <ele>596.874634</ele>
        <time>2018-10-25T10:12:58Z</time>
      </trkpt>
      <trkpt lat="43.82024" lon="5.39312">
        <ele>598.002563</ele>
        <time>2018-10-25T10:13:17Z</time>
      </trkpt>
      <trkpt lat="43.8201" lon="5.39309">
        <ele>599.275146</ele>
        <time>2018-10-25T10:13:33Z</time>
      </trkpt>
      <trkpt lat="43.81994" lon="5.39315">
        <ele>604.024597</ele>
        <time>2018-10-25T10:13:49Z</time>
      </trkpt>
      <trkpt lat="43.81982" lon="5.39297">
        <ele>604.342529</ele>
        <time>2018-10-25T10:14:04Z</time>
      </trkpt>
      <trkpt lat="43.8198" lon="5.39316">
        <ele>608.824707</ele>
        <time>2018-10-25T10:14:46Z</time>
      </trkpt>
      <trkpt lat="43.8198" lon="5.39337">
        <ele>612.972778</ele>
        <time>2018-10-25T10:15:01Z</time>
      </trkpt>
      <trkpt lat="43.81987" lon="5.39354">
        <ele>614.868042</ele>
        <time>2018-10-25T10:15:21Z</time>
      </trkpt>
      <trkpt lat="43.81993" lon="5.39371">
        <ele>617.257202</ele>
        <time>2018-10-25T10:15:39Z</time>
      </trkpt>
      <trkpt lat="43.82006" lon="5.3938">
        <ele>617.093445</ele>
        <time>2018-10-25T10:15:57Z</time>
      </trkpt>
      <trkpt lat="43.82009" lon="5.39398">
        <ele>621.583008</ele>
        <time>2018-10-25T10:16:15Z</time>
      </trkpt>
      <trkpt lat="43.81998" lon="5.3941">
        <ele>625.764221</ele>
        <time>2018-10-25T10:16:39Z</time>
      </trkpt>
      <trkpt lat="43.81984" lon="5.39414">
        <ele>628.900024</ele>
        <time>2018-10-25T10:17:00Z</time>
      </trkpt>
      <trkpt lat="43.81971" lon="5.39422">
        <ele>631.850464</ele>
        <time>2018-10-25T10:17:16Z</time>
      </trkpt>
      <trkpt lat="43.81957" lon="5.39416">
        <ele>633.585938</ele>
        <time>2018-10-25T10:17:42Z</time>
      </trkpt>
      <trkpt lat="43.81944" lon="5.3943">
        <ele>636.852417</ele>
        <time>2018-10-25T10:17:58Z</time>
      </trkpt>
      <trkpt lat="43.8193" lon="5.39431">
        <ele>639.192139</ele>
        <time>2018-10-25T10:18:24Z</time>
      </trkpt>
      <trkpt lat="43.81917" lon="5.39436">
        <ele>641.81543</ele>
        <time>2018-10-25T10:18:45Z</time>
      </trkpt>
      <trkpt lat="43.81903" lon="5.39434">
        <ele>646.017578</ele>
        <time>2018-10-25T10:19:05Z</time>
      </trkpt>
      <trkpt lat="43.81889" lon="5.39431">
        <ele>650.407532</ele>
        <time>2018-10-25T10:19:27Z</time>
      </trkpt>
      <trkpt lat="43.81875" lon="5.39434">
        <ele>655.105713</ele>
        <time>2018-10-25T10:19:44Z</time>
      </trkpt>
      <trkpt lat="43.81862" lon="5.39425">
        <ele>658.850342</ele>
        <time>2018-10-25T10:20:06Z</time>
      </trkpt>
      <trkpt lat="43.8185" lon="5.39415">
        <ele>662.278564</ele>
        <time>2018-10-25T10:20:27Z</time>
      </trkpt>
      <trkpt lat="43.81845" lon="5.39433">
        <ele>664.701904</ele>
        <time>2018-10-25T10:20:46Z</time>
      </trkpt>
      <trkpt lat="43.81848" lon="5.39452">
        <ele>664.236755</ele>
        <time>2018-10-25T10:21:09Z</time>
      </trkpt>
      <trkpt lat="43.81842" lon="5.39469">
        <ele>666.639465</ele>
        <time>2018-10-25T10:21:31Z</time>
      </trkpt>
      <trkpt lat="43.8183" lon="5.39457">
        <ele>669.932129</ele>
        <time>2018-10-25T10:21:51Z</time>
      </trkpt>
      <trkpt lat="43.81824" lon="5.39441">
        <ele>671.805969</ele>
        <time>2018-10-25T10:22:09Z</time>
      </trkpt>
      <trkpt lat="43.81823" lon="5.39421">
        <ele>671.529297</ele>
        <time>2018-10-25T10:22:25Z</time>
      </trkpt>
      <trkpt lat="43.81826" lon="5.39403">
        <ele>669.125916</ele>
        <time>2018-10-25T10:22:46Z</time>
      </trkpt>
      <trkpt lat="43.81828" lon="5.39384">
        <ele>667.058228</ele>
        <time>2018-10-25T10:23:02Z</time>
      </trkpt>
      <trkpt lat="43.81822" lon="5.39367">
        <ele>667.299072</ele>
        <time>2018-10-25T10:23:18Z</time>
      </trkpt>
      <trkpt lat="43.81811" lon="5.39355">
        <ele>668.865601</ele>
        <time>2018-10-25T10:23:33Z</time>
      </trkpt>
      <trkpt lat="43.81796" lon="5.39349">
        <ele>672.058838</ele>
        <time>2018-10-25T10:23:49Z</time>
      </trkpt>
      <trkpt lat="43.81781" lon="5.39342">
        <ele>674.530701</ele>
        <time>2018-10-25T10:24:04Z</time>
      </trkpt>
      <trkpt lat="43.81765" lon="5.39337">
        <ele>677.330688</ele>
        <time>2018-10-25T10:24:20Z</time>
      </trkpt>
      <trkpt lat="43.81751" lon="5.39339">
        <ele>680.807434</ele>
        <time>2018-10-25T10:24:36Z</time>
      </trkpt>
      <trkpt lat="43.81737" lon="5.39341">
        <ele>684.960876</ele>
        <time>2018-10-25T10:24:54Z</time>
      </trkpt>
      <trkpt lat="43.81724" lon="5.39342">
        <ele>688.763428</ele>
        <time>2018-10-25T10:25:15Z</time>
      </trkpt>
      <trkpt lat="43.8171" lon="5.39335">
        <ele>691.274536</ele>
        <time>2018-10-25T10:25:33Z</time>
      </trkpt>
      <trkpt lat="43.81696" lon="5.39337">
        <ele>695.425171</ele>
        <time>2018-10-25T10:25:50Z</time>
      </trkpt>
      <trkpt lat="43.81701" lon="5.39356">
        <ele>697.178955</ele>
        <time>2018-10-25T10:26:17Z</time>
      </trkpt>
      <trkpt lat="43.81696" lon="5.39373">
        <ele>701.495483</ele>
        <time>2018-10-25T10:26:51Z</time>
      </trkpt>
      <trkpt lat="43.81682" lon="5.39374">
        <ele>705.390991</ele>
        <time>2018-10-25T10:27:09Z</time>
      </trkpt>
      <trkpt lat="43.81668" lon="5.3937">
        <ele>708.381592</ele>
        <time>2018-10-25T10:27:31Z</time>
      </trkpt>
      <trkpt lat="43.81652" lon="5.39366">
        <ele>713.875732</ele>
        <time>2018-10-25T10:27:47Z</time>
      </trkpt>
      <trkpt lat="43.8164" lon="5.39354">
        <ele>716.698547</ele>
        <time>2018-10-25T10:28:02Z</time>
      </trkpt>
      <trkpt lat="43.81633" lon="5.39336">
        <ele>717.581482</ele>
        <time>2018-10-25T10:28:28Z</time>
      </trkpt>
      <trkpt lat="43.8162" lon="5.3933">
        <ele>722.536438</ele>
        <time>2018-10-25T10:28:46Z</time>
      </trkpt>
      <trkpt lat="43.81609" lon="5.39316">
        <ele>726.045227</ele>
        <time>2018-10-25T10:29:07Z</time>
      </trkpt>
      <trkpt lat="43.81603" lon="5.39299">
        <ele>727.683472</ele>
        <time>2018-10-25T10:29:25Z</time>
      </trkpt>
      <trkpt lat="43.81594" lon="5.39284">
        <ele>730.557861</ele>
        <time>2018-10-25T10:29:50Z</time>
      </trkpt>
      <trkpt lat="43.81584" lon="5.39272">
        <ele>734.032715</ele>
        <time>2018-10-25T10:30:08Z</time>
      </trkpt>
      <trkpt lat="43.81574" lon="5.3926">
        <ele>737.452148</ele>
        <time>2018-10-25T10:30:30Z</time>
      </trkpt>
      <trkpt lat="43.81566" lon="5.39276">
        <ele>741.441711</ele>
        <time>2018-10-25T10:31:06Z</time>
      </trkpt>
      <trkpt lat="43.8156" lon="5.39293">
        <ele>745.13446</ele>
        <time>2018-10-25T10:31:24Z</time>
      </trkpt>
      <trkpt lat="43.81555" lon="5.3931">
        <ele>748.705566</ele>
        <time>2018-10-25T10:31:42Z</time>
      </trkpt>
      <trkpt lat="43.81547" lon="5.39326">
        <ele>753.08252</ele>
        <time>2018-10-25T10:32:01Z</time>
      </trkpt>
      <trkpt lat="43.8154" lon="5.39342">
        <ele>756.733948</ele>
        <time>2018-10-25T10:32:29Z</time>
      </trkpt>
      <trkpt lat="43.81535" lon="5.39359">
        <ele>759.18689</ele>
        <time>2018-10-25T10:32:52Z</time>
      </trkpt>
      <trkpt lat="43.81527" lon="5.39376">
        <ele>762.048889</ele>
        <time>2018-10-25T10:33:13Z</time>
      </trkpt>
      <trkpt lat="43.81518" lon="5.39391">
        <ele>765.244263</ele>
        <time>2018-10-25T10:33:32Z</time>
      </trkpt>
      <trkpt lat="43.81512" lon="5.39411">
        <ele>767.14325</ele>
        <time>2018-10-25T10:33:48Z</time>
      </trkpt>
      <trkpt lat="43.81511" lon="5.3943">
        <ele>768.728027</ele>
        <time>2018-10-25T10:34:04Z</time>
      </trkpt>
      <trkpt lat="43.8151" lon="5.3945">
        <ele>770.80365</ele>
        <time>2018-10-25T10:34:22Z</time>
      </trkpt>
      <trkpt lat="43.81515" lon="5.39467">
        <ele>770.899719</ele>
        <time>2018-10-25T10:34:38Z</time>
      </trkpt>
      <trkpt lat="43.81507" lon="5.39482">
        <ele>774.538635</ele>
        <time>2018-10-25T10:35:03Z</time>
      </trkpt>
      <trkpt lat="43.81493" lon="5.39483">
        <ele>776.776855</ele>
        <time>2018-10-25T10:35:21Z</time>
      </trkpt>
      <trkpt lat="43.81479" lon="5.39482">
        <ele>777.074097</ele>
        <time>2018-10-25T10:35:40Z</time>
      </trkpt>
      <trkpt lat="43.81465" lon="5.39482">
        <ele>777.440308</ele>
        <time>2018-10-25T10:35:58Z</time>
      </trkpt>
      <trkpt lat="43.8145" lon="5.39474">
        <ele>777.532471</ele>
        <time>2018-10-25T10:36:14Z</time>
      </trkpt>
      <trkpt lat="43.81441" lon="5.39489">
        <ele>778.339783</ele>
        <time>2018-10-25T10:36:34Z</time>
      </trkpt>
      <trkpt lat="43.81434" lon="5.39505">
        <ele>779.416748</ele>
        <time>2018-10-25T10:36:49Z</time>
      </trkpt>
      <trkpt lat="43.81424" lon="5.39523">
        <ele>781.648071</ele>
        <time>2018-10-25T10:37:05Z</time>
      </trkpt>
      <trkpt lat="43.81415" lon="5.39541">
        <ele>783.404968</ele>
        <time>2018-10-25T10:37:20Z</time>
      </trkpt>
      <trkpt lat="43.81408" lon="5.39557">
        <ele>785.208618</ele>
        <time>2018-10-25T10:37:35Z</time>
      </trkpt>
      <trkpt lat="43.81399" lon="5.39576">
        <ele>787.554016</ele>
        <time>2018-10-25T10:37:51Z</time>
      </trkpt>
      <trkpt lat="43.81391" lon="5.39596">
        <ele>788.082458</ele>
        <time>2018-10-25T10:38:07Z</time>
      </trkpt>
      <trkpt lat="43.81377" lon="5.39603">
        <ele>788.126587</ele>
        <time>2018-10-25T10:38:23Z</time>
      </trkpt>
      <trkpt lat="43.81365" lon="5.3961">
        <ele>788.171631</ele>
        <time>2018-10-25T10:38:44Z</time>
      </trkpt>
      <trkpt lat="43.81351" lon="5.39615">
        <ele>788.370239</ele>
        <time>2018-10-25T10:39:07Z</time>
      </trkpt>
      <trkpt lat="43.81341" lon="5.39627">
        <ele>788.213379</ele>
        <time>2018-10-25T10:39:59Z</time>
      </trkpt>
      <trkpt lat="43.81328" lon="5.39633">
        <ele>789.394348</ele>
        <time>2018-10-25T10:40:38Z</time>
      </trkpt>
      <trkpt lat="43.81314" lon="5.39632">
        <ele>792.492188</ele>
        <time>2018-10-25T10:41:03Z</time>
      </trkpt>
      <trkpt lat="43.81301" lon="5.39628">
        <ele>795.509277</ele>
        <time>2018-10-25T10:41:19Z</time>
      </trkpt>
      <trkpt lat="43.81287" lon="5.39625">
        <ele>798.529785</ele>
        <time>2018-10-25T10:41:34Z</time>
      </trkpt>
      <trkpt lat="43.81273" lon="5.39626">
        <ele>801.510986</ele>
        <time>2018-10-25T10:41:51Z</time>
      </trkpt>
      <trkpt lat="43.8126" lon="5.39633">
        <ele>804.32959</ele>
        <time>2018-10-25T10:42:07Z</time>
      </trkpt>
      <trkpt lat="43.81247" lon="5.39639">
        <ele>807.657715</ele>
        <time>2018-10-25T10:42:22Z</time>
      </trkpt>
      <trkpt lat="43.81233" lon="5.39644">
        <ele>811.595337</ele>
        <time>2018-10-25T10:42:42Z</time>
      </trkpt>
      <trkpt lat="43.81219" lon="5.39644">
        <ele>815.589111</ele>
        <time>2018-10-25T10:43:03Z</time>
      </trkpt>
      <trkpt lat="43.81208" lon="5.39655">
        <ele>818.80835</ele>
        <time>2018-10-25T10:43:19Z</time>
      </trkpt>
      <trkpt lat="43.81196" lon="5.39666">
        <ele>821.914551</ele>
        <time>2018-10-25T10:43:37Z</time>
      </trkpt>
      <trkpt lat="43.81183" lon="5.39669">
        <ele>825.149292</ele>
        <time>2018-10-25T10:44:04Z</time>
      </trkpt>
      <trkpt lat="43.8117" lon="5.39679">
        <ele>827.208069</ele>
        <time>2018-10-25T10:44:23Z</time>
      </trkpt>
      <trkpt lat="43.81157" lon="5.39682">
        <ele>830.637085</ele>
        <time>2018-10-25T10:44:51Z</time>
      </trkpt>
      <trkpt lat="43.81143" lon="5.39686">
        <ele>834.256592</ele>
        <time>2018-10-25T10:45:18Z</time>
      </trkpt>
      <trkpt lat="43.81131" lon="5.39694">
        <ele>836.952759</ele>
        <time>2018-10-25T10:45:44Z</time>
      </trkpt>
      <trkpt lat="43.81117" lon="5.39697">
        <ele>840.820984</ele>
        <time>2018-10-25T10:46:12Z</time>
      </trkpt>
      <trkpt lat="43.81104" lon="5.39693">
        <ele>845.179443</ele>
        <time>2018-10-25T10:46:47Z</time>
      </trkpt>
      <trkpt lat="43.8109" lon="5.39688">
        <ele>849.443848</ele>
        <time>2018-10-25T10:47:10Z</time>
      </trkpt>
      <trkpt lat="43.81079" lon="5.39677">
        <ele>852.282227</ele>
        <time>2018-10-25T10:47:30Z</time>
      </trkpt>
      <trkpt lat="43.81066" lon="5.39669">
        <ele>853.651855</ele>
        <time>2018-10-25T10:47:47Z</time>
      </trkpt>
      <trkpt lat="43.81053" lon="5.39668">
        <ele>854.989136</ele>
        <time>2018-10-25T10:48:05Z</time>
      </trkpt>
      <trkpt lat="43.8104" lon="5.39675">
        <ele>856.581177</ele>
        <time>2018-10-25T10:48:25Z</time>
      </trkpt>
      <trkpt lat="43.81028" lon="5.39684">
        <ele>858.528076</ele>
        <time>2018-10-25T10:48:47Z</time>
      </trkpt>
      <trkpt lat="43.81021" lon="5.397">
        <ele>860.804688</ele>
        <time>2018-10-25T10:49:05Z</time>
      </trkpt>
      <trkpt lat="43.81012" lon="5.39715">
        <ele>863.608765</ele>
        <time>2018-10-25T10:49:23Z</time>
      </trkpt>
      <trkpt lat="43.81005" lon="5.39731">
        <ele>866.736572</ele>
        <time>2018-10-25T10:49:39Z</time>
      </trkpt>
      <trkpt lat="43.80995" lon="5.39745">
        <ele>869.43512</ele>
        <time>2018-10-25T10:49:58Z</time>
      </trkpt>
      <trkpt lat="43.80982" lon="5.39752">
        <ele>870.155823</ele>
        <time>2018-10-25T10:50:14Z</time>
      </trkpt>
      <trkpt lat="43.80972" lon="5.39765">
        <ele>870.159058</ele>
        <time>2018-10-25T10:50:30Z</time>
      </trkpt>
      <trkpt lat="43.80963" lon="5.3978">
        <ele>870.583252</ele>
        <time>2018-10-25T10:50:46Z</time>
      </trkpt>
      <trkpt lat="43.80953" lon="5.39794">
        <ele>871.496216</ele>
        <time>2018-10-25T10:51:02Z</time>
      </trkpt>
      <trkpt lat="43.80942" lon="5.39807">
        <ele>873.026306</ele>
        <time>2018-10-25T10:51:18Z</time>
      </trkpt>
      <trkpt lat="43.80932" lon="5.39826">
        <ele>875.233093</ele>
        <time>2018-10-25T10:51:34Z</time>
      </trkpt>
      <trkpt lat="43.8092" lon="5.39843">
        <ele>877.005981</ele>
        <time>2018-10-25T10:51:49Z</time>
      </trkpt>
      <trkpt lat="43.80906" lon="5.39857">
        <ele>877.756714</ele>
        <time>2018-10-25T10:52:05Z</time>
      </trkpt>
      <trkpt lat="43.80895" lon="5.39872">
        <ele>878.462402</ele>
        <time>2018-10-25T10:52:21Z</time>
      </trkpt>
      <trkpt lat="43.80881" lon="5.39881">
        <ele>879.776184</ele>
        <time>2018-10-25T10:52:37Z</time>
      </trkpt>
      <trkpt lat="43.80869" lon="5.3989">
        <ele>881.293945</ele>
        <time>2018-10-25T10:52:53Z</time>
      </trkpt>
      <trkpt lat="43.80855" lon="5.39893">
        <ele>883.072754</ele>
        <time>2018-10-25T10:53:09Z</time>
      </trkpt>
      <trkpt lat="43.8084" lon="5.39895">
        <ele>885.047729</ele>
        <time>2018-10-25T10:53:25Z</time>
      </trkpt>
      <trkpt lat="43.80826" lon="5.39894">
        <ele>886.360046</ele>
        <time>2018-10-25T10:53:40Z</time>
      </trkpt>
      <trkpt lat="43.80812" lon="5.39895">
        <ele>887.252502</ele>
        <time>2018-10-25T10:53:57Z</time>
      </trkpt>
      <trkpt lat="43.80799" lon="5.39892">
        <ele>887.98999</ele>
        <time>2018-10-25T10:54:12Z</time>
      </trkpt>
      <trkpt lat="43.80784" lon="5.3989">
        <ele>888.817261</ele>
        <time>2018-10-25T10:54:28Z</time>
      </trkpt>
      <trkpt lat="43.80771" lon="5.39888">
        <ele>889.67804</ele>
        <time>2018-10-25T10:54:43Z</time>
      </trkpt>
      <trkpt lat="43.80758" lon="5.39893">
        <ele>890.540405</ele>
        <time>2018-10-25T10:55:00Z</time>
      </trkpt>
      <trkpt lat="43.8075" lon="5.39911">
        <ele>890.996338</ele>
        <time>2018-10-25T11:03:21Z</time>
      </trkpt>
      <trkpt lat="43.80749" lon="5.39933">
        <ele>890.003479</ele>
        <time>2018-10-25T11:03:36Z</time>
      </trkpt>
      <trkpt lat="43.80745" lon="5.39957">
        <ele>888.552124</ele>
        <time>2018-10-25T11:03:51Z</time>
      </trkpt>
      <trkpt lat="43.8074" lon="5.39982">
        <ele>886.946838</ele>
        <time>2018-10-25T11:04:07Z</time>
      </trkpt>
      <trkpt lat="43.80733" lon="5.40004">
        <ele>885.371948</ele>
        <time>2018-10-25T11:04:22Z</time>
      </trkpt>
      <trkpt lat="43.80727" lon="5.4003">
        <ele>882.788879</ele>
        <time>2018-10-25T11:04:38Z</time>
      </trkpt>
      <trkpt lat="43.80726" lon="5.40054">
        <ele>880.315186</ele>
        <time>2018-10-25T11:04:53Z</time>
      </trkpt>
      <trkpt lat="43.80729" lon="5.40083">
        <ele>877.532471</ele>
        <time>2018-10-25T11:05:09Z</time>
      </trkpt>
      <trkpt lat="43.80732" lon="5.40111">
        <ele>876.611694</ele>
        <time>2018-10-25T11:05:24Z</time>
      </trkpt>
      <trkpt lat="43.80732" lon="5.40138">
        <ele>875.695374</ele>
        <time>2018-10-25T11:05:40Z</time>
      </trkpt>
      <trkpt lat="43.80734" lon="5.40161">
        <ele>875.040405</ele>
        <time>2018-10-25T11:05:55Z</time>
      </trkpt>
      <trkpt lat="43.80741" lon="5.40186">
        <ele>875.514771</ele>
        <time>2018-10-25T11:06:11Z</time>
      </trkpt>
      <trkpt lat="43.80747" lon="5.40208">
        <ele>876.221802</ele>
        <time>2018-10-25T11:06:26Z</time>
      </trkpt>
      <trkpt lat="43.80753" lon="5.40229">
        <ele>876.510254</ele>
        <time>2018-10-25T11:06:41Z</time>
      </trkpt>
      <trkpt lat="43.80761" lon="5.40247">
        <ele>876.278198</ele>
        <time>2018-10-25T11:06:56Z</time>
      </trkpt>
      <trkpt lat="43.80769" lon="5.40266">
        <ele>876.360596</ele>
        <time>2018-10-25T11:07:11Z</time>
      </trkpt>
      <trkpt lat="43.80776" lon="5.40291">
        <ele>876.632568</ele>
        <time>2018-10-25T11:07:27Z</time>
      </trkpt>
      <trkpt lat="43.80781" lon="5.40314">
        <ele>876.831299</ele>
        <time>2018-10-25T11:07:43Z</time>
      </trkpt>
      <trkpt lat="43.80787" lon="5.40336">
        <ele>876.90686</ele>
        <time>2018-10-25T11:07:59Z</time>
      </trkpt>
      <trkpt lat="43.80788" lon="5.40361">
        <ele>877.062012</ele>
        <time>2018-10-25T11:08:15Z</time>
      </trkpt>
      <trkpt lat="43.80787" lon="5.40383">
        <ele>877.30481</ele>
        <time>2018-10-25T11:08:31Z</time>
      </trkpt>
      <trkpt lat="43.8079" lon="5.40414">
        <ele>877.488464</ele>
        <time>2018-10-25T11:08:47Z</time>
      </trkpt>
      <trkpt lat="43.80799" lon="5.40437">
        <ele>877.77887</ele>
        <time>2018-10-25T11:09:02Z</time>
      </trkpt>
      <trkpt lat="43.8081" lon="5.40457">
        <ele>878.404175</ele>
        <time>2018-10-25T11:09:18Z</time>
      </trkpt>
      <trkpt lat="43.80821" lon="5.40477">
        <ele>879.411743</ele>
        <time>2018-10-25T11:09:33Z</time>
      </trkpt>
      <trkpt lat="43.8083" lon="5.40499">
        <ele>880.755859</ele>
        <time>2018-10-25T11:09:49Z</time>
      </trkpt>
      <trkpt lat="43.80838" lon="5.4052">
        <ele>879.940247</ele>
        <time>2018-10-25T11:10:04Z</time>
      </trkpt>
      <trkpt lat="43.80848" lon="5.40533">
        <ele>879.238708</ele>
        <time>2018-10-25T11:10:31Z</time>
      </trkpt>
      <trkpt lat="43.80863" lon="5.40546">
        <ele>878.708862</ele>
        <time>2018-10-25T11:10:46Z</time>
      </trkpt>
      <trkpt lat="43.80881" lon="5.40549">
        <ele>878.620483</ele>
        <time>2018-10-25T11:11:01Z</time>
      </trkpt>
      <trkpt lat="43.80902" lon="5.40548">
        <ele>878.598206</ele>
        <time>2018-10-25T11:11:17Z</time>
      </trkpt>
      <trkpt lat="43.80921" lon="5.40547">
        <ele>878.767761</ele>
        <time>2018-10-25T11:11:33Z</time>
      </trkpt>
      <trkpt lat="43.80938" lon="5.40545">
        <ele>879.488098</ele>
        <time>2018-10-25T11:11:48Z</time>
      </trkpt>
      <trkpt lat="43.80957" lon="5.40548">
        <ele>880.358521</ele>
        <time>2018-10-25T11:12:04Z</time>
      </trkpt>
      <trkpt lat="43.80974" lon="5.40557">
        <ele>881.458862</ele>
        <time>2018-10-25T11:12:19Z</time>
      </trkpt>
      <trkpt lat="43.80994" lon="5.40566">
        <ele>882.835449</ele>
        <time>2018-10-25T11:12:34Z</time>
      </trkpt>
      <trkpt lat="43.81014" lon="5.40577">
        <ele>882.296509</ele>
        <time>2018-10-25T11:12:49Z</time>
      </trkpt>
      <trkpt lat="43.81026" lon="5.40594">
        <ele>881.079834</ele>
        <time>2018-10-25T11:13:05Z</time>
      </trkpt>
      <trkpt lat="43.8103" lon="5.40623">
        <ele>879.90155</ele>
        <time>2018-10-25T11:13:20Z</time>
      </trkpt>
      <trkpt lat="43.81031" lon="5.40648">
        <ele>879.116821</ele>
        <time>2018-10-25T11:13:36Z</time>
      </trkpt>
      <trkpt lat="43.81028" lon="5.40674">
        <ele>878.654175</ele>
        <time>2018-10-25T11:13:52Z</time>
      </trkpt>
      <trkpt lat="43.81025" lon="5.40697">
        <ele>879.179688</ele>
        <time>2018-10-25T11:14:07Z</time>
      </trkpt>
      <trkpt lat="43.8102" lon="5.40724">
        <ele>879.477051</ele>
        <time>2018-10-25T11:14:23Z</time>
      </trkpt>
      <trkpt lat="43.81012" lon="5.40749">
        <ele>879.046021</ele>
        <time>2018-10-25T11:14:38Z</time>
      </trkpt>
      <trkpt lat="43.81004" lon="5.40771">
        <ele>879.33252</ele>
        <time>2018-10-25T11:14:54Z</time>
      </trkpt>
      <trkpt lat="43.80995" lon="5.40796">
        <ele>879.42511</ele>
        <time>2018-10-25T11:15:09Z</time>
      </trkpt>
      <trkpt lat="43.80984" lon="5.4082">
        <ele>878.321228</ele>
        <time>2018-10-25T11:15:24Z</time>
      </trkpt>
      <trkpt lat="43.80972" lon="5.40842">
        <ele>875.623047</ele>
        <time>2018-10-25T11:15:40Z</time>
      </trkpt>
      <trkpt lat="43.80962" lon="5.40865">
        <ele>872.548218</ele>
        <time>2018-10-25T11:15:55Z</time>
      </trkpt>
      <trkpt lat="43.80954" lon="5.40893">
        <ele>870.313965</ele>
        <time>2018-10-25T11:16:11Z</time>
      </trkpt>
      <trkpt lat="43.80955" lon="5.40922">
        <ele>869.367432</ele>
        <time>2018-10-25T11:16:27Z</time>
      </trkpt>
      <trkpt lat="43.80965" lon="5.40944">
        <ele>867.788208</ele>
        <time>2018-10-25T11:16:42Z</time>
      </trkpt>
      <trkpt lat="43.80979" lon="5.40963">
        <ele>867.269958</ele>
        <time>2018-10-25T11:16:58Z</time>
      </trkpt>
      <trkpt lat="43.80993" lon="5.40986">
        <ele>865.919189</ele>
        <time>2018-10-25T11:17:14Z</time>
      </trkpt>
      <trkpt lat="43.81004" lon="5.41013">
        <ele>863.603088</ele>
        <time>2018-10-25T11:17:30Z</time>
      </trkpt>
      <trkpt lat="43.81012" lon="5.41038">
        <ele>860.813232</ele>
        <time>2018-10-25T11:17:45Z</time>
      </trkpt>
      <trkpt lat="43.81023" lon="5.41064">
        <ele>857.919128</ele>
        <time>2018-10-25T11:18:01Z</time>
      </trkpt>
      <trkpt lat="43.81034" lon="5.41085">
        <ele>855.426758</ele>
        <time>2018-10-25T11:18:17Z</time>
      </trkpt>
      <trkpt lat="43.81043" lon="5.41109">
        <ele>853.663208</ele>
        <time>2018-10-25T11:18:32Z</time>
      </trkpt>
      <trkpt lat="43.81058" lon="5.41129">
        <ele>853.062439</ele>
        <time>2018-10-25T11:18:48Z</time>
      </trkpt>
      <trkpt lat="43.81072" lon="5.41147">
        <ele>853.286865</ele>
        <time>2018-10-25T11:19:04Z</time>
      </trkpt>
      <trkpt lat="43.81085" lon="5.41169">
        <ele>853.55658</ele>
        <time>2018-10-25T11:19:20Z</time>
      </trkpt>
      <trkpt lat="43.81099" lon="5.41163">
        <ele>852.44751</ele>
        <time>2018-10-25T11:19:47Z</time>
      </trkpt>
      <trkpt lat="43.81104" lon="5.41137">
        <ele>850.961365</ele>
        <time>2018-10-25T11:20:03Z</time>
      </trkpt>
      <trkpt lat="43.81105" lon="5.41117">
        <ele>849.838562</ele>
        <time>2018-10-25T11:20:21Z</time>
      </trkpt>
      <trkpt lat="43.81116" lon="5.41097">
        <ele>846.286743</ele>
        <time>2018-10-25T11:20:37Z</time>
      </trkpt>
      <trkpt lat="43.81133" lon="5.41107">
        <ele>842.732788</ele>
        <time>2018-10-25T11:20:52Z</time>
      </trkpt>
      <trkpt lat="43.81148" lon="5.41111">
        <ele>839.669312</ele>
        <time>2018-10-25T11:21:07Z</time>
      </trkpt>
      <trkpt lat="43.81165" lon="5.41119">
        <ele>837.266663</ele>
        <time>2018-10-25T11:21:23Z</time>
      </trkpt>
      <trkpt lat="43.81182" lon="5.41124">
        <ele>833.648376</ele>
        <time>2018-10-25T11:21:38Z</time>
      </trkpt>
      <trkpt lat="43.81181" lon="5.41104">
        <ele>829.658997</ele>
        <time>2018-10-25T11:22:04Z</time>
      </trkpt>
      <trkpt lat="43.8117" lon="5.41081">
        <ele>829.328491</ele>
        <time>2018-10-25T11:22:19Z</time>
      </trkpt>
      <trkpt lat="43.81184" lon="5.41084">
        <ele>824.560913</ele>
        <time>2018-10-25T11:22:35Z</time>
      </trkpt>
      <trkpt lat="43.81203" lon="5.41093">
        <ele>820.575073</ele>
        <time>2018-10-25T11:22:50Z</time>
      </trkpt>
      <trkpt lat="43.81221" lon="5.41101">
        <ele>817.162476</ele>
        <time>2018-10-25T11:23:05Z</time>
      </trkpt>
      <trkpt lat="43.81238" lon="5.41107">
        <ele>813.62146</ele>
        <time>2018-10-25T11:23:20Z</time>
      </trkpt>
      <trkpt lat="43.81234" lon="5.41088">
        <ele>809.431885</ele>
        <time>2018-10-25T11:23:51Z</time>
      </trkpt>
      <trkpt lat="43.81245" lon="5.41077">
        <ele>805.344482</ele>
        <time>2018-10-25T11:24:13Z</time>
      </trkpt>
      <trkpt lat="43.81262" lon="5.41082">
        <ele>800.471924</ele>
        <time>2018-10-25T11:24:28Z</time>
      </trkpt>
      <trkpt lat="43.8128" lon="5.41088">
        <ele>798.017761</ele>
        <time>2018-10-25T11:24:44Z</time>
      </trkpt>
      <trkpt lat="43.81267" lon="5.41067">
        <ele>800.617004</ele>
        <time>2018-10-25T11:25:00Z</time>
      </trkpt>
      <trkpt lat="43.81281" lon="5.41061">
        <ele>797.725708</ele>
        <time>2018-10-25T11:25:20Z</time>
      </trkpt>
      <trkpt lat="43.81299" lon="5.41071">
        <ele>792.949463</ele>
        <time>2018-10-25T11:25:36Z</time>
      </trkpt>
      <trkpt lat="43.81312" lon="5.4106">
        <ele>790.103455</ele>
        <time>2018-10-25T11:25:51Z</time>
      </trkpt>
      <trkpt lat="43.81329" lon="5.41055">
        <ele>785.76593</ele>
        <time>2018-10-25T11:26:07Z</time>
      </trkpt>
      <trkpt lat="43.81347" lon="5.41052">
        <ele>782.072449</ele>
        <time>2018-10-25T11:26:22Z</time>
      </trkpt>
      <trkpt lat="43.81364" lon="5.41045">
        <ele>778.606384</ele>
        <time>2018-10-25T11:26:38Z</time>
      </trkpt>
      <trkpt lat="43.81382" lon="5.41033">
        <ele>774.169312</ele>
        <time>2018-10-25T11:26:53Z</time>
      </trkpt>
      <trkpt lat="43.81402" lon="5.4103">
        <ele>769.648438</ele>
        <time>2018-10-25T11:27:09Z</time>
      </trkpt>
      <trkpt lat="43.81422" lon="5.41026">
        <ele>765.286987</ele>
        <time>2018-10-25T11:27:25Z</time>
      </trkpt>
      <trkpt lat="43.81438" lon="5.41016">
        <ele>761.121094</ele>
        <time>2018-10-25T11:27:41Z</time>
      </trkpt>
      <trkpt lat="43.81456" lon="5.41007">
        <ele>756.01123</ele>
        <time>2018-10-25T11:27:56Z</time>
      </trkpt>
      <trkpt lat="43.81469" lon="5.40989">
        <ele>753.237854</ele>
        <time>2018-10-25T11:28:11Z</time>
      </trkpt>
      <trkpt lat="43.81489" lon="5.40982">
        <ele>748.949036</ele>
        <time>2018-10-25T11:28:27Z</time>
      </trkpt>
      <trkpt lat="43.81505" lon="5.40965">
        <ele>746.60022</ele>
        <time>2018-10-25T11:28:42Z</time>
      </trkpt>
      <trkpt lat="43.81525" lon="5.40958">
        <ele>742.82605</ele>
        <time>2018-10-25T11:28:58Z</time>
      </trkpt>
      <trkpt lat="43.81546" lon="5.40946">
        <ele>738.147339</ele>
        <time>2018-10-25T11:29:14Z</time>
      </trkpt>
      <trkpt lat="43.81563" lon="5.40932">
        <ele>733.241333</ele>
        <time>2018-10-25T11:29:29Z</time>
      </trkpt>
      <trkpt lat="43.81581" lon="5.40918">
        <ele>726.707275</ele>
        <time>2018-10-25T11:29:45Z</time>
      </trkpt>
      <trkpt lat="43.81598" lon="5.40905">
        <ele>725.412292</ele>
        <time>2018-10-25T11:30:01Z</time>
      </trkpt>
      <trkpt lat="43.81617" lon="5.40891">
        <ele>723.936707</ele>
        <time>2018-10-25T11:30:16Z</time>
      </trkpt>
      <trkpt lat="43.81633" lon="5.40874">
        <ele>722.201843</ele>
        <time>2018-10-25T11:30:31Z</time>
      </trkpt>
      <trkpt lat="43.81654" lon="5.40867">
        <ele>717.956421</ele>
        <time>2018-10-25T11:30:47Z</time>
      </trkpt>
      <trkpt lat="43.81673" lon="5.40858">
        <ele>714.858459</ele>
        <time>2018-10-25T11:31:03Z</time>
      </trkpt>
      <trkpt lat="43.81693" lon="5.40846">
        <ele>713.424927</ele>
        <time>2018-10-25T11:31:19Z</time>
      </trkpt>
      <trkpt lat="43.81707" lon="5.40834">
        <ele>711.202637</ele>
        <time>2018-10-25T11:31:34Z</time>
      </trkpt>
      <trkpt lat="43.81723" lon="5.40815">
        <ele>711.310425</ele>
        <time>2018-10-25T11:31:49Z</time>
      </trkpt>
      <trkpt lat="43.81741" lon="5.408">
        <ele>708.923767</ele>
        <time>2018-10-25T11:32:05Z</time>
      </trkpt>
      <trkpt lat="43.81758" lon="5.4078">
        <ele>707.570862</ele>
        <time>2018-10-25T11:32:21Z</time>
      </trkpt>
      <trkpt lat="43.81774" lon="5.40762">
        <ele>706.717407</ele>
        <time>2018-10-25T11:32:37Z</time>
      </trkpt>
      <trkpt lat="43.81785" lon="5.40741">
        <ele>705.421265</ele>
        <time>2018-10-25T11:32:52Z</time>
      </trkpt>
      <trkpt lat="43.81799" lon="5.4073">
        <ele>703.531311</ele>
        <time>2018-10-25T11:33:08Z</time>
      </trkpt>
      <trkpt lat="43.8182" lon="5.40726">
        <ele>699.218384</ele>
        <time>2018-10-25T11:33:23Z</time>
      </trkpt>
      <trkpt lat="43.81839" lon="5.40716">
        <ele>694.087463</ele>
        <time>2018-10-25T11:33:38Z</time>
      </trkpt>
      <trkpt lat="43.81855" lon="5.40725">
        <ele>692.970093</ele>
        <time>2018-10-25T11:33:54Z</time>
      </trkpt>
      <trkpt lat="43.81872" lon="5.40729">
        <ele>691.097046</ele>
        <time>2018-10-25T11:34:09Z</time>
      </trkpt>
      <trkpt lat="43.81886" lon="5.40725">
        <ele>687.820679</ele>
        <time>2018-10-25T11:34:34Z</time>
      </trkpt>
      <trkpt lat="43.81898" lon="5.40715">
        <ele>682.596985</ele>
        <time>2018-10-25T11:34:52Z</time>
      </trkpt>
      <trkpt lat="43.81912" lon="5.4072">
        <ele>681.794922</ele>
        <time>2018-10-25T11:35:19Z</time>
      </trkpt>
      <trkpt lat="43.8193" lon="5.40737">
        <ele>683.26062</ele>
        <time>2018-10-25T11:35:35Z</time>
      </trkpt>
      <trkpt lat="43.81943" lon="5.4076">
        <ele>685.210876</ele>
        <time>2018-10-25T11:35:51Z</time>
      </trkpt>
      <trkpt lat="43.81955" lon="5.40786">
        <ele>686.228577</ele>
        <time>2018-10-25T11:36:07Z</time>
      </trkpt>
      <trkpt lat="43.81965" lon="5.40813">
        <ele>687.58252</ele>
        <time>2018-10-25T11:36:23Z</time>
      </trkpt>
      <trkpt lat="43.81973" lon="5.40838">
        <ele>688.283508</ele>
        <time>2018-10-25T11:36:38Z</time>
      </trkpt>
      <trkpt lat="43.81985" lon="5.40865">
        <ele>686.227844</ele>
        <time>2018-10-25T11:36:54Z</time>
      </trkpt>
      <trkpt lat="43.81992" lon="5.40891">
        <ele>685.734741</ele>
        <time>2018-10-25T11:37:09Z</time>
      </trkpt>
      <trkpt lat="43.82005" lon="5.40914">
        <ele>683.629883</ele>
        <time>2018-10-25T11:37:24Z</time>
      </trkpt>
      <trkpt lat="43.82021" lon="5.40937">
        <ele>681.997681</ele>
        <time>2018-10-25T11:37:40Z</time>
      </trkpt>
      <trkpt lat="43.82034" lon="5.40959">
        <ele>680.346558</ele>
        <time>2018-10-25T11:37:56Z</time>
      </trkpt>
      <trkpt lat="43.82045" lon="5.40971">
        <ele>678.350342</ele>
        <time>2018-10-25T11:39:55Z</time>
      </trkpt>
      <trkpt lat="43.8206" lon="5.40991">
        <ele>675.567078</ele>
        <time>2018-10-25T11:40:10Z</time>
      </trkpt>
      <trkpt lat="43.82077" lon="5.41006">
        <ele>671.531006</ele>
        <time>2018-10-25T11:40:26Z</time>
      </trkpt>
      <trkpt lat="43.82091" lon="5.41018">
        <ele>669.389954</ele>
        <time>2018-10-25T11:40:41Z</time>
      </trkpt>
      <trkpt lat="43.82109" lon="5.41035">
        <ele>668.131348</ele>
        <time>2018-10-25T11:40:57Z</time>
      </trkpt>
      <trkpt lat="43.82127" lon="5.4105">
        <ele>665.991638</ele>
        <time>2018-10-25T11:41:13Z</time>
      </trkpt>
      <trkpt lat="43.82145" lon="5.41064">
        <ele>663.174927</ele>
        <time>2018-10-25T11:41:29Z</time>
      </trkpt>
      <trkpt lat="43.82166" lon="5.41081">
        <ele>658.59259</ele>
        <time>2018-10-25T11:41:45Z</time>
      </trkpt>
      <trkpt lat="43.82182" lon="5.41098">
        <ele>655.916687</ele>
        <time>2018-10-25T11:42:00Z</time>
      </trkpt>
      <trkpt lat="43.822" lon="5.41113">
        <ele>653.359863</ele>
        <time>2018-10-25T11:42:16Z</time>
      </trkpt>
      <trkpt lat="43.82222" lon="5.41128">
        <ele>650.744385</ele>
        <time>2018-10-25T11:42:32Z</time>
      </trkpt>
      <trkpt lat="43.82243" lon="5.41136">
        <ele>649.604614</ele>
        <time>2018-10-25T11:42:48Z</time>
      </trkpt>
      <trkpt lat="43.82263" lon="5.41137">
        <ele>649.831848</ele>
        <time>2018-10-25T11:43:03Z</time>
      </trkpt>
      <trkpt lat="43.82284" lon="5.41143">
        <ele>648.947388</ele>
        <time>2018-10-25T11:43:19Z</time>
      </trkpt>
      <trkpt lat="43.82299" lon="5.41145">
        <ele>648.963013</ele>
        <time>2018-10-25T11:43:34Z</time>
      </trkpt>
      <trkpt lat="43.82316" lon="5.41147">
        <ele>649.084595</ele>
        <time>2018-10-25T11:43:49Z</time>
      </trkpt>
      <trkpt lat="43.82335" lon="5.41147">
        <ele>649.84613</ele>
        <time>2018-10-25T11:44:05Z</time>
      </trkpt>
      <trkpt lat="43.82355" lon="5.41146">
        <ele>649.623596</ele>
        <time>2018-10-25T11:44:21Z</time>
      </trkpt>
      <trkpt lat="43.82374" lon="5.41146">
        <ele>649.294189</ele>
        <time>2018-10-25T11:44:37Z</time>
      </trkpt>
      <trkpt lat="43.82399" lon="5.41146">
        <ele>648.827881</ele>
        <time>2018-10-25T11:44:53Z</time>
      </trkpt>
      <trkpt lat="43.82419" lon="5.41136">
        <ele>648.016174</ele>
        <time>2018-10-25T11:45:09Z</time>
      </trkpt>
      <trkpt lat="43.82439" lon="5.41122">
        <ele>644.872803</ele>
        <time>2018-10-25T11:45:25Z</time>
      </trkpt>
      <trkpt lat="43.82457" lon="5.41104">
        <ele>641.555298</ele>
        <time>2018-10-25T11:45:41Z</time>
      </trkpt>
      <trkpt lat="43.82472" lon="5.41089">
        <ele>638.650818</ele>
        <time>2018-10-25T11:45:56Z</time>
      </trkpt>
      <trkpt lat="43.82486" lon="5.41067">
        <ele>635.294067</ele>
        <time>2018-10-25T11:46:12Z</time>
      </trkpt>
      <trkpt lat="43.82501" lon="5.4105">
        <ele>631.840027</ele>
        <time>2018-10-25T11:46:27Z</time>
      </trkpt>
      <trkpt lat="43.82519" lon="5.41035">
        <ele>629.168152</ele>
        <time>2018-10-25T11:46:43Z</time>
      </trkpt>
      <trkpt lat="43.82537" lon="5.41028">
        <ele>626.952393</ele>
        <time>2018-10-25T11:46:58Z</time>
      </trkpt>
      <trkpt lat="43.82557" lon="5.41018">
        <ele>624.461548</ele>
        <time>2018-10-25T11:47:14Z</time>
      </trkpt>
      <trkpt lat="43.82575" lon="5.41004">
        <ele>621.984558</ele>
        <time>2018-10-25T11:47:29Z</time>
      </trkpt>
      <trkpt lat="43.82587" lon="5.40981">
        <ele>619.400024</ele>
        <time>2018-10-25T11:47:45Z</time>
      </trkpt>
      <trkpt lat="43.82598" lon="5.40954">
        <ele>616.909729</ele>
        <time>2018-10-25T11:48:01Z</time>
      </trkpt>
      <trkpt lat="43.82605" lon="5.40927">
        <ele>614.907593</ele>
        <time>2018-10-25T11:48:16Z</time>
      </trkpt>
      <trkpt lat="43.82611" lon="5.40905">
        <ele>613.028442</ele>
        <time>2018-10-25T11:48:32Z</time>
      </trkpt>
      <trkpt lat="43.82615" lon="5.40875">
        <ele>610.222717</ele>
        <time>2018-10-25T11:48:48Z</time>
      </trkpt>
      <trkpt lat="43.82615" lon="5.40843">
        <ele>607.491028</ele>
        <time>2018-10-25T11:49:04Z</time>
      </trkpt>
      <trkpt lat="43.82613" lon="5.40816">
        <ele>605.450806</ele>
        <time>2018-10-25T11:49:19Z</time>
      </trkpt>
      <trkpt lat="43.82609" lon="5.4079">
        <ele>603.670959</ele>
        <time>2018-10-25T11:49:34Z</time>
      </trkpt>
      <trkpt lat="43.82609" lon="5.40761">
        <ele>601.66272</ele>
        <time>2018-10-25T11:49:50Z</time>
      </trkpt>
      <trkpt lat="43.82611" lon="5.40733">
        <ele>599.4552</ele>
        <time>2018-10-25T11:50:05Z</time>
      </trkpt>
      <trkpt lat="43.82612" lon="5.40701">
        <ele>596.548462</ele>
        <time>2018-10-25T11:50:21Z</time>
      </trkpt>
      <trkpt lat="43.82614" lon="5.40671">
        <ele>593.852173</ele>
        <time>2018-10-25T11:50:37Z</time>
      </trkpt>
      <trkpt lat="43.82616" lon="5.40642">
        <ele>591.480713</ele>
        <time>2018-10-25T11:50:52Z</time>
      </trkpt>
      <trkpt lat="43.82619" lon="5.4061">
        <ele>588.9104</ele>
        <time>2018-10-25T11:51:08Z</time>
      </trkpt>
      <trkpt lat="43.82626" lon="5.40582">
        <ele>586.89978</ele>
        <time>2018-10-25T11:51:24Z</time>
      </trkpt>
      <trkpt lat="43.82634" lon="5.40554">
        <ele>584.104553</ele>
        <time>2018-10-25T11:51:40Z</time>
      </trkpt>
      <trkpt lat="43.82642" lon="5.40523">
        <ele>580.386841</ele>
        <time>2018-10-25T11:51:56Z</time>
      </trkpt>
      <trkpt lat="43.8266" lon="5.40508">
        <ele>577.562317</ele>
        <time>2018-10-25T11:52:12Z</time>
      </trkpt>
      <trkpt lat="43.82677" lon="5.40495">
        <ele>575.756958</ele>
        <time>2018-10-25T11:52:27Z</time>
      </trkpt>
      <trkpt lat="43.82694" lon="5.40482">
        <ele>574.771729</ele>
        <time>2018-10-25T11:52:42Z</time>
      </trkpt>
      <trkpt lat="43.8271" lon="5.40462">
        <ele>573.078735</ele>
        <time>2018-10-25T11:52:58Z</time>
      </trkpt>
      <trkpt lat="43.8272" lon="5.40444">
        <ele>571.330078</ele>
        <time>2018-10-25T11:53:14Z</time>
      </trkpt>
      <trkpt lat="43.82742" lon="5.40434">
        <ele>571.562317</ele>
        <time>2018-10-25T11:53:29Z</time>
      </trkpt>
      <trkpt lat="43.82761" lon="5.40418">
        <ele>570.909973</ele>
        <time>2018-10-25T11:53:45Z</time>
      </trkpt>
      <trkpt lat="43.82773" lon="5.40398">
        <ele>568.684326</ele>
        <time>2018-10-25T11:54:00Z</time>
      </trkpt>
      <trkpt lat="43.82786" lon="5.40377">
        <ele>566.881653</ele>
        <time>2018-10-25T11:54:16Z</time>
      </trkpt>
      <trkpt lat="43.82791" lon="5.40351">
        <ele>563.773071</ele>
        <time>2018-10-25T11:54:31Z</time>
      </trkpt>
      <trkpt lat="43.82808" lon="5.40338">
        <ele>564.493042</ele>
        <time>2018-10-25T11:54:46Z</time>
      </trkpt>
      <trkpt lat="43.82826" lon="5.40325">
        <ele>565.110779</ele>
        <time>2018-10-25T11:55:02Z</time>
      </trkpt>
      <trkpt lat="43.82839" lon="5.40305">
        <ele>562.077393</ele>
        <time>2018-10-25T11:55:17Z</time>
      </trkpt>
      <trkpt lat="43.82846" lon="5.40287">
        <ele>558.953186</ele>
        <time>2018-10-25T11:56:53Z</time>
      </trkpt>
      <trkpt lat="43.82839" lon="5.4027">
        <ele>554.854492</ele>
        <time>2018-10-25T11:57:14Z</time>
      </trkpt>
      <trkpt lat="43.82842" lon="5.40251">
        <ele>551.128479</ele>
        <time>2018-10-25T11:57:33Z</time>
      </trkpt>
      <trkpt lat="43.82848" lon="5.40227">
        <ele>547.543396</ele>
        <time>2018-10-25T11:57:49Z</time>
      </trkpt>
      <trkpt lat="43.82854" lon="5.40207">
        <ele>544.555847</ele>
        <time>2018-10-25T11:58:04Z</time>
      </trkpt>
      <trkpt lat="43.82868" lon="5.40193">
        <ele>543.643921</ele>
        <time>2018-10-25T11:58:20Z</time>
      </trkpt>
      <trkpt lat="43.82881" lon="5.40176">
        <ele>541.90155</ele>
        <time>2018-10-25T11:58:35Z</time>
      </trkpt>
      <trkpt lat="43.82894" lon="5.40157">
        <ele>540.494995</ele>
        <time>2018-10-25T11:58:51Z</time>
      </trkpt>
      <trkpt lat="43.82907" lon="5.40142">
        <ele>539.849854</ele>
        <time>2018-10-25T11:59:07Z</time>
      </trkpt>
      <trkpt lat="43.82913" lon="5.40121">
        <ele>537.264038</ele>
        <time>2018-10-25T11:59:22Z</time>
      </trkpt>
      <trkpt lat="43.82915" lon="5.40096">
        <ele>533.822876</ele>
        <time>2018-10-25T11:59:38Z</time>
      </trkpt>
      <trkpt lat="43.82915" lon="5.40072">
        <ele>530.541748</ele>
        <time>2018-10-25T11:59:53Z</time>
      </trkpt>
      <trkpt lat="43.82926" lon="5.40048">
        <ele>528.674805</ele>
        <time>2018-10-25T12:00:09Z</time>
      </trkpt>
      <trkpt lat="43.82932" lon="5.40023">
        <ele>525.684265</ele>
        <time>2018-10-25T12:00:25Z</time>
      </trkpt>
      <trkpt lat="43.82944" lon="5.40005">
        <ele>524.203247</ele>
        <time>2018-10-25T12:00:40Z</time>
      </trkpt>
      <trkpt lat="43.82953" lon="5.3998">
        <ele>522.980591</ele>
        <time>2018-10-25T12:00:56Z</time>
      </trkpt>
      <trkpt lat="43.82963" lon="5.39959">
        <ele>521.337219</ele>
        <time>2018-10-25T12:01:12Z</time>
      </trkpt>
      <trkpt lat="43.82973" lon="5.39945">
        <ele>519.24353</ele>
        <time>2018-10-25T12:01:30Z</time>
      </trkpt>
      <trkpt lat="43.82989" lon="5.39926">
        <ele>514.638306</ele>
        <time>2018-10-25T12:01:46Z</time>
      </trkpt>
      <trkpt lat="43.83003" lon="5.3991">
        <ele>511.166077</ele>
        <time>2018-10-25T12:02:01Z</time>
      </trkpt>
      <trkpt lat="43.83021" lon="5.39894">
        <ele>510.45108</ele>
        <time>2018-10-25T12:02:17Z</time>
      </trkpt>
      <trkpt lat="43.83038" lon="5.3988">
        <ele>508.64032</ele>
        <time>2018-10-25T12:02:32Z</time>
      </trkpt>
      <trkpt lat="43.83057" lon="5.39865">
        <ele>505.398315</ele>
        <time>2018-10-25T12:02:48Z</time>
      </trkpt>
      <trkpt lat="43.83074" lon="5.39852">
        <ele>501.34906</ele>
        <time>2018-10-25T12:03:04Z</time>
      </trkpt>
      <trkpt lat="43.83088" lon="5.39845">
        <ele>498.479309</ele>
        <time>2018-10-25T12:03:22Z</time>
      </trkpt>
      <trkpt lat="43.83107" lon="5.39832">
        <ele>494.723938</ele>
        <time>2018-10-25T12:03:37Z</time>
      </trkpt>
      <trkpt lat="43.83125" lon="5.39817">
        <ele>492.125061</ele>
        <time>2018-10-25T12:03:53Z</time>
      </trkpt>
      <trkpt lat="43.83144" lon="5.39804">
        <ele>488.446533</ele>
        <time>2018-10-25T12:04:09Z</time>
      </trkpt>
      <trkpt lat="43.83164" lon="5.39795">
        <ele>484.026825</ele>
        <time>2018-10-25T12:04:25Z</time>
      </trkpt>
      <trkpt lat="43.83185" lon="5.398">
        <ele>481.444489</ele>
        <time>2018-10-25T12:04:41Z</time>
      </trkpt>
      <trkpt lat="43.83196" lon="5.39819">
        <ele>481.469879</ele>
        <time>2018-10-25T12:04:56Z</time>
      </trkpt>
      <trkpt lat="43.83212" lon="5.39831">
        <ele>479.559387</ele>
        <time>2018-10-25T12:05:11Z</time>
      </trkpt>
      <trkpt lat="43.83231" lon="5.39853">
        <ele>478.161194</ele>
        <time>2018-10-25T12:05:27Z</time>
      </trkpt>
      <trkpt lat="43.83238" lon="5.3988">
        <ele>479.531189</ele>
        <time>2018-10-25T12:05:43Z</time>
      </trkpt>
      <trkpt lat="43.8325" lon="5.39902">
        <ele>477.77774</ele>
        <time>2018-10-25T12:05:59Z</time>
      </trkpt>
      <trkpt lat="43.83262" lon="5.39917">
        <ele>479.498901</ele>
        <time>2018-10-25T12:06:15Z</time>
      </trkpt>
      <trkpt lat="43.83256" lon="5.39891">
        <ele>477.258423</ele>
        <time>2018-10-25T12:06:31Z</time>
      </trkpt>
      <trkpt lat="43.83245" lon="5.39868">
        <ele>476.301819</ele>
        <time>2018-10-25T12:06:46Z</time>
      </trkpt>
      <trkpt lat="43.83236" lon="5.39843">
        <ele>475.799957</ele>
        <time>2018-10-25T12:07:02Z</time>
      </trkpt>
      <trkpt lat="43.83234" lon="5.39818">
        <ele>474.607544</ele>
        <time>2018-10-25T12:07:18Z</time>
      </trkpt>
      <trkpt lat="43.83226" lon="5.39791">
        <ele>474.364807</ele>
        <time>2018-10-25T12:07:33Z</time>
      </trkpt>
      <trkpt lat="43.83215" lon="5.39765">
        <ele>474.093964</ele>
        <time>2018-10-25T12:07:48Z</time>
      </trkpt>
      <trkpt lat="43.83196" lon="5.39743">
        <ele>474.489716</ele>
        <time>2018-10-25T12:08:04Z</time>
      </trkpt>
      <trkpt lat="43.83186" lon="5.3972">
        <ele>475.552704</ele>
        <time>2018-10-25T12:08:20Z</time>
      </trkpt>
      <trkpt lat="43.83192" lon="5.39691">
        <ele>474.754761</ele>
        <time>2018-10-25T12:08:36Z</time>
      </trkpt>
      <trkpt lat="43.83205" lon="5.39677">
        <ele>472.679169</ele>
        <time>2018-10-25T12:08:52Z</time>
      </trkpt>
      <trkpt lat="43.83203" lon="5.39646">
        <ele>472.432068</ele>
        <time>2018-10-25T12:09:07Z</time>
      </trkpt>
      <trkpt lat="43.83187" lon="5.39626">
        <ele>472.459381</ele>
        <time>2018-10-25T12:09:23Z</time>
      </trkpt>
      <trkpt lat="43.83181" lon="5.39604">
        <ele>470.572815</ele>
        <time>2018-10-25T12:09:39Z</time>
      </trkpt>
      <trkpt lat="43.83174" lon="5.39584">
        <ele>467.890991</ele>
        <time>2018-10-25T12:09:54Z</time>
      </trkpt>
      <trkpt lat="43.83163" lon="5.39561">
        <ele>470.65097</ele>
        <time>2018-10-25T12:10:09Z</time>
      </trkpt>
      <trkpt lat="43.83141" lon="5.39548">
        <ele>474.08316</ele>
        <time>2018-10-25T12:10:25Z</time>
      </trkpt>
      <trkpt lat="43.8312" lon="5.39537">
        <ele>474.821625</ele>
        <time>2018-10-25T12:10:41Z</time>
      </trkpt>
      <trkpt lat="43.83099" lon="5.39517">
        <ele>471.653778</ele>
        <time>2018-10-25T12:10:57Z</time>
      </trkpt>
      <trkpt lat="43.83084" lon="5.39511">
        <ele>469.06958</ele>
        <time>2018-10-25T12:11:12Z</time>
      </trkpt>
      <trkpt lat="43.83074" lon="5.39499">
        <ele>467.736053</ele>
        <time>2018-10-25T12:11:29Z</time>
      </trkpt>
      <trkpt lat="43.83062" lon="5.39483">
        <ele>470.389771</ele>
        <time>2018-10-25T12:11:44Z</time>
      </trkpt>
      <trkpt lat="43.83051" lon="5.39463">
        <ele>471.246643</ele>
        <time>2018-10-25T12:11:59Z</time>
      </trkpt>
      <trkpt lat="43.83029" lon="5.39443">
        <ele>469.039246</ele>
        <time>2018-10-25T12:12:15Z</time>
      </trkpt>
      <trkpt lat="43.83011" lon="5.39425">
        <ele>463.88324</ele>
        <time>2018-10-25T12:12:30Z</time>
      </trkpt>
      <trkpt lat="43.82999" lon="5.39415">
        <ele>460.60141</ele>
        <time>2018-10-25T12:12:45Z</time>
      </trkpt>
      <trkpt lat="43.82985" lon="5.3939">
        <ele>465.805969</ele>
        <time>2018-10-25T12:13:01Z</time>
      </trkpt>
      <trkpt lat="43.82976" lon="5.39373">
        <ele>467.680389</ele>
        <time>2018-10-25T12:13:16Z</time>
      </trkpt>
      <trkpt lat="43.82965" lon="5.39351">
        <ele>468.163086</ele>
        <time>2018-10-25T12:13:32Z</time>
      </trkpt>
      <trkpt lat="43.8295" lon="5.39335">
        <ele>466.985626</ele>
        <time>2018-10-25T12:13:48Z</time>
      </trkpt>
      <trkpt lat="43.82929" lon="5.39317">
        <ele>465.617249</ele>
        <time>2018-10-25T12:14:04Z</time>
      </trkpt>
      <trkpt lat="43.82916" lon="5.39297">
        <ele>462.798676</ele>
        <time>2018-10-25T12:14:20Z</time>
      </trkpt>
      <trkpt lat="43.82913" lon="5.39278">
        <ele>461.457855</ele>
        <time>2018-10-25T12:14:42Z</time>
      </trkpt>
      <trkpt lat="43.82903" lon="5.39257">
        <ele>460.792236</ele>
        <time>2018-10-25T12:14:57Z</time>
      </trkpt>
      <trkpt lat="43.82888" lon="5.39232">
        <ele>462.56842</ele>
        <time>2018-10-25T12:15:13Z</time>
      </trkpt>
      <trkpt lat="43.82872" lon="5.39214">
        <ele>462.630341</ele>
        <time>2018-10-25T12:15:29Z</time>
      </trkpt>
      <trkpt lat="43.82862" lon="5.39199">
        <ele>460.952484</ele>
        <time>2018-10-25T12:15:45Z</time>
      </trkpt>
      <trkpt lat="43.82846" lon="5.39178">
        <ele>456.077423</ele>
        <time>2018-10-25T12:16:01Z</time>
      </trkpt>
      <trkpt lat="43.82835" lon="5.39162">
        <ele>451.838043</ele>
        <time>2018-10-25T12:16:17Z</time>
      </trkpt>
      <trkpt lat="43.82823" lon="5.39145">
        <ele>455.080383</ele>
        <time>2018-10-25T12:16:33Z</time>
      </trkpt>
      <trkpt lat="43.82822" lon="5.39125">
        <ele>456.169556</ele>
        <time>2018-10-25T12:16:49Z</time>
      </trkpt>
      <trkpt lat="43.82805" lon="5.3911">
        <ele>457.647766</ele>
        <time>2018-10-25T12:17:04Z</time>
      </trkpt>
      <trkpt lat="43.8279" lon="5.39102">
        <ele>457.54187</ele>
        <time>2018-10-25T12:17:19Z</time>
      </trkpt>
      <trkpt lat="43.82772" lon="5.39095">
        <ele>456.594238</ele>
        <time>2018-10-25T12:17:35Z</time>
      </trkpt>
      <trkpt lat="43.82755" lon="5.39095">
        <ele>456.116547</ele>
        <time>2018-10-25T12:17:51Z</time>
      </trkpt>
      <trkpt lat="43.82741" lon="5.39094">
        <ele>456.008118</ele>
        <time>2018-10-25T12:18:14Z</time>
      </trkpt>
      <trkpt lat="43.82728" lon="5.39096">
        <ele>457.262909</ele>
        <time>2018-10-25T12:18:31Z</time>
      </trkpt>
      <trkpt lat="43.82713" lon="5.39095">
        <ele>457.514832</ele>
        <time>2018-10-25T12:18:47Z</time>
      </trkpt>
      <trkpt lat="43.82694" lon="5.39094">
        <ele>458.006714</ele>
        <time>2018-10-25T12:19:03Z</time>
      </trkpt>
      <trkpt lat="43.82676" lon="5.39089">
        <ele>456.673615</ele>
        <time>2018-10-25T12:19:18Z</time>
      </trkpt>
      <trkpt lat="43.82654" lon="5.39086">
        <ele>454.964172</ele>
        <time>2018-10-25T12:19:34Z</time>
      </trkpt>
      <trkpt lat="43.82632" lon="5.39075">
        <ele>454.150085</ele>
        <time>2018-10-25T12:19:49Z</time>
      </trkpt>
      <trkpt lat="43.82614" lon="5.39088">
        <ele>453.056183</ele>
        <time>2018-10-25T12:20:05Z</time>
      </trkpt>
      <trkpt lat="43.82596" lon="5.39084">
        <ele>450.018616</ele>
        <time>2018-10-25T12:20:20Z</time>
      </trkpt>
      <trkpt lat="43.82577" lon="5.39078">
        <ele>449.772949</ele>
        <time>2018-10-25T12:20:36Z</time>
      </trkpt>
      <trkpt lat="43.82558" lon="5.39073">
        <ele>449.892761</ele>
        <time>2018-10-25T12:20:51Z</time>
      </trkpt>
      <trkpt lat="43.82544" lon="5.39071">
        <ele>449.56369</ele>
        <time>2018-10-25T12:21:07Z</time>
      </trkpt>
      <trkpt lat="43.82529" lon="5.3906">
        <ele>448.643066</ele>
        <time>2018-10-25T12:21:22Z</time>
      </trkpt>
      <trkpt lat="43.82517" lon="5.39045">
        <ele>446.592834</ele>
        <time>2018-10-25T12:21:38Z</time>
      </trkpt>
      <trkpt lat="43.82501" lon="5.39028">
        <ele>442.087158</ele>
        <time>2018-10-25T12:21:53Z</time>
      </trkpt>
      <trkpt lat="43.82484" lon="5.39016">
        <ele>443.830078</ele>
        <time>2018-10-25T12:22:09Z</time>
      </trkpt>
      <trkpt lat="43.8247" lon="5.39003">
        <ele>443.940216</ele>
        <time>2018-10-25T12:22:25Z</time>
      </trkpt>
      <trkpt lat="43.82454" lon="5.38995">
        <ele>445.385773</ele>
        <time>2018-10-25T12:22:41Z</time>
      </trkpt>
      <trkpt lat="43.82439" lon="5.38973">
        <ele>444.403595</ele>
        <time>2018-10-25T12:22:56Z</time>
      </trkpt>
      <trkpt lat="43.82423" lon="5.38946">
        <ele>438.575134</ele>
        <time>2018-10-25T12:23:12Z</time>
      </trkpt>
      <trkpt lat="43.82438" lon="5.38916">
        <ele>436.081848</ele>
        <time>2018-10-25T12:23:29Z</time>
      </trkpt>
      <trkpt lat="43.82414" lon="5.3891">
        <ele>431.564484</ele>
        <time>2018-10-25T12:23:45Z</time>
      </trkpt>
      <trkpt lat="43.82398" lon="5.389">
        <ele>434.076202</ele>
        <time>2018-10-25T12:24:00Z</time>
      </trkpt>
      <trkpt lat="43.82384" lon="5.38895">
        <ele>434.79007</ele>
        <time>2018-10-25T12:24:19Z</time>
      </trkpt>
      <trkpt lat="43.82369" lon="5.38888">
        <ele>434.867615</ele>
        <time>2018-10-25T12:24:35Z</time>
      </trkpt>
      <trkpt lat="43.82358" lon="5.38874">
        <ele>433.978699</ele>
        <time>2018-10-25T12:24:50Z</time>
      </trkpt>
      <trkpt lat="43.82344" lon="5.38871">
        <ele>432.484222</ele>
        <time>2018-10-25T12:25:06Z</time>
      </trkpt>
      <trkpt lat="43.82325" lon="5.38865">
        <ele>431.278137</ele>
        <time>2018-10-25T12:25:22Z</time>
      </trkpt>
      <trkpt lat="43.82311" lon="5.3886">
        <ele>431.842621</ele>
        <time>2018-10-25T12:25:38Z</time>
      </trkpt>
      <trkpt lat="43.82295" lon="5.38857">
        <ele>432.775604</ele>
        <time>2018-10-25T12:25:53Z</time>
      </trkpt>
      <trkpt lat="43.82279" lon="5.38864">
        <ele>435.093872</ele>
        <time>2018-10-25T12:26:09Z</time>
      </trkpt>
      <trkpt lat="43.82262" lon="5.3886">
        <ele>436.08548</ele>
        <time>2018-10-25T12:26:24Z</time>
      </trkpt>
      <trkpt lat="43.82257" lon="5.38842">
        <ele>434.370514</ele>
        <time>2018-10-25T12:26:40Z</time>
      </trkpt>
      <trkpt lat="43.82246" lon="5.38823">
        <ele>434.158478</ele>
        <time>2018-10-25T12:26:55Z</time>
      </trkpt>
      <trkpt lat="43.8224" lon="5.38795">
        <ele>432.957153</ele>
        <time>2018-10-25T12:27:11Z</time>
      </trkpt>
      <trkpt lat="43.82233" lon="5.3877">
        <ele>431.83667</ele>
        <time>2018-10-25T12:27:26Z</time>
      </trkpt>
      <trkpt lat="43.82226" lon="5.38746">
        <ele>431.587341</ele>
        <time>2018-10-25T12:27:42Z</time>
      </trkpt>
      <trkpt lat="43.82218" lon="5.38725">
        <ele>432.263855</ele>
        <time>2018-10-25T12:27:57Z</time>
      </trkpt>
      <trkpt lat="43.82208" lon="5.38703">
        <ele>432.703827</ele>
        <time>2018-10-25T12:28:13Z</time>
      </trkpt>
      <trkpt lat="43.822" lon="5.38677">
        <ele>430.921844</ele>
        <time>2018-10-25T12:28:28Z</time>
      </trkpt>
      <trkpt lat="43.82186" lon="5.38653">
        <ele>429.740906</ele>
        <time>2018-10-25T12:28:44Z</time>
      </trkpt>
      <trkpt lat="43.82176" lon="5.38627">
        <ele>426.873474</ele>
        <time>2018-10-25T12:29:00Z</time>
      </trkpt>
      <trkpt lat="43.82168" lon="5.38601">
        <ele>422.665009</ele>
        <time>2018-10-25T12:29:15Z</time>
      </trkpt>
      <trkpt lat="43.82173" lon="5.38571">
        <ele>418.23465</ele>
        <time>2018-10-25T12:29:31Z</time>
      </trkpt>
      <trkpt lat="43.82174" lon="5.38543">
        <ele>417.507996</ele>
        <time>2018-10-25T12:29:46Z</time>
      </trkpt>
      <trkpt lat="43.82178" lon="5.38518">
        <ele>416.700378</ele>
        <time>2018-10-25T12:30:02Z</time>
      </trkpt>
      <trkpt lat="43.82193" lon="5.38508">
        <ele>415.523163</ele>
        <time>2018-10-25T12:30:17Z</time>
      </trkpt>
      <trkpt lat="43.82197" lon="5.3849">
        <ele>415.865082</ele>
        <time>2018-10-25T12:30:34Z</time>
      </trkpt>
      <trkpt lat="43.82193" lon="5.38464">
        <ele>417.890564</ele>
        <time>2018-10-25T12:30:50Z</time>
      </trkpt>
      <trkpt lat="43.82193" lon="5.3844">
        <ele>419.561157</ele>
        <time>2018-10-25T12:31:06Z</time>
      </trkpt>
      <trkpt lat="43.82193" lon="5.38416">
        <ele>421.169006</ele>
        <time>2018-10-25T12:31:21Z</time>
      </trkpt>
      <trkpt lat="43.82194" lon="5.38391">
        <ele>420.275757</ele>
        <time>2018-10-25T12:31:37Z</time>
      </trkpt>
      <trkpt lat="43.82194" lon="5.38362">
        <ele>419.40683</ele>
        <time>2018-10-25T12:31:52Z</time>
      </trkpt>
      <trkpt lat="43.82188" lon="5.38334">
        <ele>417.510529</ele>
        <time>2018-10-25T12:32:08Z</time>
      </trkpt>
      <trkpt lat="43.82169" lon="5.3832">
        <ele>413.387939</ele>
        <time>2018-10-25T12:32:24Z</time>
      </trkpt>
      <trkpt lat="43.8215" lon="5.38308">
        <ele>414.533356</ele>
        <time>2018-10-25T12:32:39Z</time>
      </trkpt>
      <trkpt lat="43.82132" lon="5.38299">
        <ele>416.026367</ele>
        <time>2018-10-25T12:32:54Z</time>
      </trkpt>
      <trkpt lat="43.82117" lon="5.38279">
        <ele>414.366211</ele>
        <time>2018-10-25T12:33:10Z</time>
      </trkpt>
      <trkpt lat="43.82099" lon="5.38269">
        <ele>413.801605</ele>
        <time>2018-10-25T12:33:26Z</time>
      </trkpt>
      <trkpt lat="43.8208" lon="5.38261">
        <ele>413.936279</ele>
        <time>2018-10-25T12:33:41Z</time>
      </trkpt>
      <trkpt lat="43.82065" lon="5.3824">
        <ele>413.243713</ele>
        <time>2018-10-25T12:33:57Z</time>
      </trkpt>
      <trkpt lat="43.82059" lon="5.38224">
        <ele>412.175415</ele>
        <time>2018-10-25T12:34:13Z</time>
      </trkpt>
    </trkseg>
  </trk>
</gpx>